This is the latest recevied weather packets stored in our database for station/object OE3PDB-3. If no packets are shown the sender has not sent any weather packets the latest 10 day(s).
| Time | Temp. | Humidity | Pressure | Rain* | Wind** | Luminosity | Snow |
|---|---|---|---|---|---|---|---|
| 1788010823 | 26.67° C | 48% | 1016.9 hPa | 0 mm | - | - | - |
| 1788010223 | 26.11° C | 50% | 1016.9 hPa | 0 mm | - | - | - |
| 1788009623 | 25.56° C | 52% | 1017.1 hPa | 0 mm | - | - | - |
| 1788009023 | 25° C | 53% | 1017.1 hPa | 0 mm | - | - | - |
| 1788008423 | 24.44° C | 55% | 1017.2 hPa | 0 mm | - | - | - |
| 1788007823 | 24.44° C | 56% | 1017.1 hPa | 0 mm | - | - | - |
| 1788007223 | 24.44° C | 57% | 1017.2 hPa | 0 mm | - | - | - |
| 1788006623 | 23.89° C | 58% | 1017.2 hPa | 0 mm | - | - | - |
| 1788006023 | 22.78° C | 62% | 1017.2 hPa | 0 mm | - | - | - |
| 1788005423 | 22.22° C | 63% | 1017.2 hPa | 0 mm | - | - | - |
| 1788004823 | 21.67° C | 64% | 1017.4 hPa | 0 mm | - | - | - |
| 1788004224 | 21.67° C | 66% | 1017.3 hPa | 0 mm | - | - | - |
| 1788003624 | 20.56° C | 68% | 1017.4 hPa | 0 mm | - | - | - |
| 1788003024 | 20° C | 70% | 1017.4 hPa | 0 mm | - | - | - |
| 1788002424 | 19.44° C | 69% | 1017.5 hPa | 0 mm | - | - | - |
| 1788001824 | 20° C | 69% | 1017.6 hPa | 0 mm | - | - | - |
| 1788001224 | 20° C | 68% | 1017.5 hPa | 0 mm | - | - | - |
| 1788000624 | 20.56° C | 67% | 1017.6 hPa | 0 mm | - | - | - |
| 1788000024 | 21.11° C | 66% | 1017.7 hPa | 0 mm | - | - | - |
| 1787999424 | 21.11° C | 63% | 1017.5 hPa | 0 mm | - | - | - |
| 1787998824 | 21.67° C | 64% | 1017.5 hPa | 0 mm | - | - | - |
| 1787998224 | 20.56° C | 66% | 1017.6 hPa | 0 mm | - | - | - |
| 1787997624 | 20° C | 66% | 1017.6 hPa | 0 mm | - | - | - |
| 1787997024 | 19.44° C | 66% | 1017.6 hPa | 0 mm | - | - | - |
| 1787996424 | 19.44° C | 66% | 1017.6 hPa | 0 mm | - | - | - |
* Rain latest hour (hover to see other rain measurements)
** Current wind speed in m/s (hover to see current wind gust speed)